Time;durP1;ratioP1;P1;durP2;ratioP2;P2;SDS_P1;SDS_P2;PMS_P1;PMS_P2;Temp;Humidity;BMP_temperature;BMP_pressure;BME280_temperature;BME280_humidity;BME280_pressure;Samples;Min_cycle;Max_cycle;Signal;HPM_P1;HPM_P2
2022/01/24 00:01:31;;;;;;;32.50;16.92;;;4.60;99.90;;;;;;6196791;22;20388;-81
2022/01/24 00:03:58;;;;;;;27.05;14.65;;;4.60;99.90;;;;;;6246744;22;20442;-81
2022/01/24 00:06:26;;;;;;;29.42;15.98;;;4.60;99.90;;;;;;6221999;22;20166;-81
2022/01/24 00:08:51;;;;;;;33.33;16.42;;;5.00;99.90;;;;;;6221426;22;20016;-81
2022/01/24 00:11:21;;;;;;;31.20;16.77;;;4.60;99.90;;;;;;6221377;22;20020;-81
2022/01/24 00:27:20;;;;;;;29.02;15.13;;;4.50;99.90;;;;;;6248771;22;20019;-81
2022/01/24 00:29:46;;;;;;;25.10;14.52;;;4.60;99.90;;;;;;6248739;22;20019;-80
2022/01/24 00:32:12;;;;;;;23.30;13.60;;;4.70;99.90;;;;;;6222364;22;20019;-81
2022/01/24 00:34:37;;;;;;;27.80;15.35;;;4.50;99.90;;;;;;6200810;22;20026;-81
2022/01/24 00:37:04;;;;;;;28.77;15.27;;;4.50;99.90;;;;;;6204067;22;20023;-81
2022/01/24 00:39:30;;;;;;;24.23;15.07;;;4.50;99.90;;;;;;6203751;22;20028;-81
2022/01/24 00:42:18;;;;;;;29.67;15.85;;;4.50;99.90;;;;;;6250639;22;20075;-81
2022/01/24 00:45:29;;;;;;;27.13;13.88;;;4.80;99.90;;;;;;6223944;22;20354;-81
2022/01/24 00:53:37;;;;;;;24.40;13.93;;;4.50;99.90;;;;;;6238593;22;20004;-81
2022/01/24 00:56:03;;;;;;;21.02;12.82;;;4.50;99.90;;;;;;6233518;22;20052;-81
2022/01/24 00:58:29;;;;;;;23.00;13.18;;;4.50;99.90;;;;;;6250917;22;20008;-81
2022/01/24 01:00:56;;;;;;;25.40;13.90;;;4.90;99.90;;;;;;6242124;22;20399;-81
2022/01/24 01:03:24;;;;;;;22.30;13.05;;;4.50;99.90;;;;;;6252757;22;20083;-81
2022/01/24 01:06:07;;;;;;;18.50;11.65;;;4.50;99.90;;;;;;6257374;22;20016;-81
2022/01/24 01:19:34;;;;;;;21.08;12.55;;;4.40;99.90;;;;;;6253663;22;20083;-81
2022/01/24 01:22:00;;;;;;;18.60;10.88;;;4.40;99.90;;;;;;6247518;22;20016;-81
2022/01/24 01:24:28;;;;;;;18.67;11.27;;;4.40;99.90;;;;;;6194527;22;20020;-81
2022/01/24 01:27:04;;;;;;;17.73;11.20;;;4.70;99.90;;;;;;6220186;22;20011;-81
2022/01/24 01:29:43;;;;;;;16.80;10.93;;;4.50;99.90;;;;;;6196324;22;20039;-81
2022/01/24 01:56:07;;;;;;;18.45;11.27;;;4.40;99.90;;;;;;6230590;22;20020;-81
2022/01/24 01:58:34;;;;;;;18.38;10.52;;;4.40;99.90;;;;;;6255351;22;20030;-81
2022/01/24 02:01:01;;;;;;;17.40;10.77;;;4.40;99.90;;;;;;6229331;22;20012;-81
2022/01/24 02:03:28;;;;;;;18.27;11.27;;;4.40;99.90;;;;;;6229005;22;20020;-81
2022/01/24 02:05:54;;;;;;;17.25;10.43;;;4.40;99.90;;;;;;6205389;22;20027;-81
2022/01/24 02:08:28;;;;;;;15.60;10.43;;;4.30;99.90;;;;;;6229752;22;20016;-81
2022/01/24 02:10:55;;;;;;;15.73;9.80;;;4.30;99.90;;;;;;6229815;22;20050;-81
2022/01/24 02:13:26;;;;;;;18.33;10.73;;;4.80;99.90;;;;;;6252844;22;20397;-81
2022/01/24 02:18:49;;;;;;;15.60;10.23;;;4.30;99.90;;;;;;6254285;22;20055;-81
2022/01/24 02:21:28;;;;;;;15.88;9.48;;;4.30;99.90;;;;;;6254676;22;20102;-80
2022/01/24 02:23:57;;;;;;;16.55;10.18;;;4.70;99.90;;;;;;6206041;22;20026;-81
2022/01/24 02:26:23;;;;;;;14.48;9.52;;;4.40;99.90;;;;;;6253132;22;20024;-81
2022/01/24 02:33:48;;;;;;;17.70;10.02;;;4.50;99.90;;;;;;6253168;22;20012;-81
2022/01/24 02:36:19;;;;;;;16.23;9.18;;;4.90;99.90;;;;;;6178453;22;20015;-81
2022/01/24 02:39:19;;;;;;;14.98;8.85;;;4.30;99.90;;;;;;6223472;22;20023;-81
2022/01/24 02:49:58;;;;;;;14.85;9.90;;;4.30;99.90;;;;;;6254432;22;20022;-81
2022/01/24 02:52:26;;;;;;;14.40;9.65;;;4.30;99.90;;;;;;6228190;22;20102;-81
2022/01/24 02:54:52;;;;;;;16.00;10.18;;;4.30;99.90;;;;;;6203960;22;20506;-81
2022/01/24 02:57:19;;;;;;;15.60;9.27;;;4.50;99.90;;;;;;6200992;22;20020;-81
2022/01/24 02:59:45;;;;;;;15.43;9.70;;;4.50;99.90;;;;;;6223806;22;20026;-81
2022/01/24 03:02:10;;;;;;;15.50;9.43;;;4.30;99.90;;;;;;6223366;22;20094;-81
2022/01/24 03:04:36;;;;;;;16.73;10.95;;;4.30;99.90;;;;;;6248402;22;20466;-81
2022/01/24 03:07:02;;;;;;;17.63;10.15;;;4.30;99.90;;;;;;6223106;22;20027;-81
2022/01/24 03:09:28;;;;;;;18.08;10.63;;;4.30;99.90;;;;;;6197601;22;20047;-81
2022/01/24 03:12:04;;;;;;;15.40;9.95;;;4.30;99.90;;;;;;6223045;22;20320;-81
2022/01/24 03:14:33;;;;;;;14.18;9.82;;;4.30;99.90;;;;;;6248192;22;20012;-81
2022/01/24 03:17:00;;;;;;;14.60;9.68;;;4.30;99.90;;;;;;6248236;22;20438;-81
2022/01/24 03:19:26;;;;;;;15.45;9.63;;;4.50;99.90;;;;;;6248581;22;20086;-81
2022/01/24 03:21:52;;;;;;;15.05;9.70;;;4.20;99.90;;;;;;6223221;22;20011;-81
2022/01/24 03:24:18;;;;;;;16.45;9.82;;;4.30;99.90;;;;;;6222826;22;20031;-81
2022/01/24 03:26:44;;;;;;;14.88;9.70;;;4.20;99.90;;;;;;6222933;22;20018;-81
2022/01/24 03:29:10;;;;;;;15.15;10.05;;;4.20;99.90;;;;;;6197555;22;20047;-81
2022/01/24 03:31:36;;;;;;;13.60;9.25;;;4.20;99.90;;;;;;6248403;22;20435;-81
2022/01/24 03:34:02;;;;;;;17.55;10.15;;;4.20;99.90;;;;;;6247948;22;20011;-81
2022/01/24 03:36:28;;;;;;;16.42;11.32;;;4.30;99.90;;;;;;6198117;22;20020;-81
2022/01/24 03:38:54;;;;;;;19.90;11.55;;;4.30;99.90;;;;;;6222947;22;20023;-81
2022/01/24 03:41:20;;;;;;;19.92;11.98;;;4.30;99.90;;;;;;6222798;22;20497;-81
2022/01/24 03:43:46;;;;;;;20.52;11.80;;;4.30;99.90;;;;;;6249734;22;20020;-81
2022/01/24 03:48:43;;;;;;;16.85;11.73;;;4.30;99.90;;;;;;6245487;22;20451;-81
2022/01/24 03:51:10;;;;;;;17.02;11.77;;;4.30;99.90;;;;;;6220962;22;20012;-81
2022/01/24 03:53:36;;;;;;;16.92;11.32;;;4.30;99.90;;;;;;6224033;22;20016;-81
2022/01/24 03:56:04;;;;;;;16.85;11.50;;;4.30;99.90;;;;;;6253390;22;20035;-81
2022/01/24 03:58:29;;;;;;;19.15;11.40;;;4.30;99.90;;;;;;6230055;22;20091;-81
2022/01/24 04:00:55;;;;;;;20.13;12.13;;;4.30;99.90;;;;;;6203183;22;20031;-81
2022/01/24 04:03:22;;;;;;;18.77;11.05;;;4.30;99.90;;;;;;6204241;22;20027;-81
2022/01/24 04:05:48;;;;;;;18.70;11.43;;;4.30;99.90;;;;;;6227673;22;20455;-81
2022/01/24 04:08:14;;;;;;;24.60;14.57;;;4.30;99.90;;;;;;6175068;22;20023;-80
2022/01/24 04:10:42;;;;;;;27.05;15.57;;;4.30;99.90;;;;;;6224896;22;20011;-81
2022/01/24 04:13:23;;;;;;;23.77;14.55;;;4.50;99.90;;;;;;6200153;22;20346;-81
2022/01/24 04:16:22;;;;;;;23.00;13.15;;;4.30;99.90;;;;;;6202529;22;20019;-81
2022/01/24 04:18:54;;;;;;;23.67;14.85;;;4.80;99.90;;;;;;6249954;22;20328;-81
2022/01/24 04:21:25;;;;;;;27.48;16.38;;;4.20;99.90;;;;;;6201684;22;20047;-81
2022/01/24 04:24:00;;;;;;;29.00;16.75;;;4.30;99.90;;;;;;6224625;22;20027;-81
2022/01/24 04:26:27;;;;;;;26.45;15.20;;;4.20;99.90;;;;;;6250185;22;20481;-81
2022/01/24 04:28:53;;;;;;;24.90;15.45;;;4.20;99.90;;;;;;6174844;22;20443;-81
2022/01/24 04:31:19;;;;;;;31.10;17.45;;;4.40;99.90;;;;;;6224520;22;20022;-81
2022/01/24 04:33:46;;;;;;;35.22;19.30;;;4.20;99.90;;;;;;6227770;22;20047;-81
2022/01/24 04:36:12;;;;;;;29.67;17.10;;;4.60;99.90;;;;;;6253952;22;20019;-81
2022/01/24 04:38:38;;;;;;;32.63;17.25;;;4.20;99.90;;;;;;6229020;22;20015;-81
2022/01/24 04:41:13;;;;;;;29.70;17.25;;;4.90;99.90;;;;;;6204528;22;20063;-81
2022/01/24 04:56:30;;;;;;;37.35;20.73;;;4.20;99.90;;;;;;6224568;22;20347;-81
2022/01/24 04:58:56;;;;;;;36.03;19.48;;;4.20;99.90;;;;;;6249278;22;20020;-81
2022/01/24 05:01:23;;;;;;;38.50;19.80;;;4.20;99.90;;;;;;6199732;22;20477;-81
2022/01/24 05:03:48;;;;;;;37.50;20.60;;;4.20;99.90;;;;;;6223973;22;20042;-81
2022/01/24 05:06:14;;;;;;;35.30;19.48;;;4.20;99.90;;;;;;6227371;22;20016;-82
2022/01/24 05:08:40;;;;;;;34.35;18.55;;;4.20;99.90;;;;;;6196669;22;20035;-81
2022/01/24 05:11:10;;;;;;;35.75;21.20;;;4.20;99.90;;;;;;6196534;22;20011;-81
2022/01/24 05:24:30;;;;;;;37.38;20.42;;;4.20;99.90;;;;;;6232991;22;20016;-81
2022/01/24 05:26:56;;;;;;;40.35;20.88;;;4.20;99.90;;;;;;6229409;22;20012;-81
2022/01/24 05:29:22;;;;;;;34.65;19.17;;;4.30;99.90;;;;;;6253321;22;20046;-81
2022/01/24 05:31:48;;;;;;;39.30;20.48;;;4.30;99.90;;;;;;6228974;22;20426;-81
2022/01/24 05:34:13;;;;;;;45.67;22.38;;;4.30;99.90;;;;;;6202784;22;20023;-81
2022/01/24 05:36:39;;;;;;;40.40;20.67;;;4.30;99.90;;;;;;6200761;22;20094;-81
2022/01/24 05:39:05;;;;;;;40.35;21.02;;;4.50;99.90;;;;;;6229569;22;20047;-81
2022/01/24 05:41:31;;;;;;;48.25;23.73;;;4.50;99.90;;;;;;6228762;22;20026;-80
2022/01/24 05:43:57;;;;;;;42.05;22.77;;;4.30;99.90;;;;;;6227602;22;20094;-81
2022/01/24 05:46:23;;;;;;;43.50;23.60;;;4.20;99.90;;;;;;6226915;22;20019;-81
2022/01/24 05:48:49;;;;;;;45.75;23.13;;;4.20;99.90;;;;;;6227890;22;20055;-81
2022/01/24 05:51:15;;;;;;;42.08;21.40;;;4.40;99.90;;;;;;6223519;22;20016;-81
2022/01/24 05:53:41;;;;;;;48.40;24.98;;;4.20;99.90;;;;;;6223532;22;20134;-81
2022/01/24 05:56:06;;;;;;;43.50;22.88;;;4.30;99.90;;;;;;6223957;22;20077;-81
2022/01/24 05:58:32;;;;;;;45.60;23.05;;;4.20;99.90;;;;;;6199102;22;20019;-81
2022/01/24 06:00:58;;;;;;;45.60;23.90;;;4.20;99.90;;;;;;6224163;22;20024;-80
2022/01/24 06:03:24;;;;;;;45.35;23.02;;;4.20;99.90;;;;;;6224729;22;20332;-80
2022/01/24 06:05:49;;;;;;;53.30;25.73;;;4.20;99.90;;;;;;6200345;22;20020;-80
2022/01/24 06:08:15;;;;;;;46.15;23.25;;;4.20;99.90;;;;;;6174170;22;20470;-81
2022/01/24 06:10:41;;;;;;;47.40;24.30;;;4.60;99.90;;;;;;6223499;22;20438;-81
2022/01/24 06:13:07;;;;;;;42.08;22.30;;;4.20;99.90;;;;;;6248585;22;20018;-81
2022/01/24 06:15:34;;;;;;;47.58;24.42;;;4.20;99.90;;;;;;6248322;22;20102;-81
2022/01/24 06:17:59;;;;;;;45.78;23.73;;;4.10;99.90;;;;;;6203195;22;20015;-81
2022/01/24 06:20:25;;;;;;;46.17;24.88;;;4.10;99.90;;;;;;6252794;22;20047;-81
2022/01/24 06:22:51;;;;;;;44.63;24.42;;;4.10;99.90;;;;;;6228632;22;20026;-81
2022/01/24 06:25:22;;;;;;;47.65;24.15;;;4.10;99.90;;;;;;6229318;22;20103;-81
2022/01/24 06:27:48;;;;;;;47.47;23.58;;;4.10;99.90;;;;;;6203465;22;20068;-81
2022/01/24 06:30:14;;;;;;;55.13;24.17;;;4.10;99.90;;;;;;6229562;22;20148;-80
2022/01/24 06:32:40;;;;;;;47.20;23.45;;;4.40;99.90;;;;;;6238652;22;20076;-80
2022/01/24 06:35:07;;;;;;;48.35;23.85;;;4.10;99.90;;;;;;6247683;22;20008;-82
2022/01/24 06:37:33;;;;;;;51.95;24.75;;;4.10;99.90;;;;;;6250479;22;20355;-81
2022/01/24 06:39:59;;;;;;;53.15;26.52;;;4.10;99.90;;;;;;6264742;22;20126;-81
2022/01/24 06:42:24;;;;;;;50.97;26.35;;;4.10;99.90;;;;;;6243816;22;20024;-81
2022/01/24 06:44:53;;;;;;;49.85;24.88;;;4.10;99.90;;;;;;6223835;22;20481;-81
2022/01/24 06:47:19;;;;;;;51.13;25.42;;;4.10;99.90;;;;;;6201525;22;20067;-82
2022/01/24 06:49:45;;;;;;;59.63;27.50;;;4.10;99.90;;;;;;6255145;22;20020;-82
2022/01/24 06:52:13;;;;;;;55.65;26.58;;;4.10;99.90;;;;;;6239212;22;20027;-86
2022/01/24 06:54:41;;;;;;;56.35;26.70;;;4.10;99.90;;;;;;6218124;22;19999;-88
2022/01/24 06:57:09;;;;;;;53.17;26.83;;;4.10;99.90;;;;;;6244645;22;20091;-89
2022/01/24 06:59:36;;;;;;;58.60;29.13;;;4.10;99.90;;;;;;6245558;22;20066;-87
2022/01/24 07:02:03;;;;;;;59.33;27.98;;;4.10;99.90;;;;;;6215573;22;20015;-86
2022/01/24 07:04:28;;;;;;;53.63;28.35;;;4.10;99.90;;;;;;6189397;22;20011;-86
2022/01/24 07:06:54;;;;;;;54.17;27.63;;;4.10;99.90;;;;;;6236279;22;20016;-87
2022/01/24 07:09:20;;;;;;;54.53;27.00;;;4.10;99.90;;;;;;6212659;22;20027;-82
2022/01/24 07:11:46;;;;;;;58.63;26.60;;;4.00;99.90;;;;;;6211096;22;20015;-83
2022/01/24 07:14:13;;;;;;;60.63;29.35;;;4.10;99.90;;;;;;6229829;22;20075;-83
2022/01/24 07:19:35;;;;;;;60.08;28.55;;;4.10;99.90;;;;;;6190785;22;20076;-83
2022/01/24 07:22:03;;;;;;;57.40;28.40;;;4.10;99.90;;;;;;6237198;22;20054;-82
2022/01/24 07:24:30;;;;;;;61.22;28.25;;;4.00;99.90;;;;;;6238457;22;20047;-83
2022/01/24 07:26:56;;;;;;;56.83;28.67;;;4.00;99.90;;;;;;6215408;22;20031;-84
2022/01/24 07:29:22;;;;;;;62.53;28.13;;;4.10;99.90;;;;;;6257989;22;20027;-83
2022/01/24 07:31:48;;;;;;;54.78;27.67;;;4.10;99.90;;;;;;6225376;22;20016;-83
2022/01/24 07:34:15;;;;;;;61.90;28.42;;;4.10;99.90;;;;;;6204339;22;20050;-82
2022/01/24 07:36:41;;;;;;;63.42;30.20;;;4.10;99.90;;;;;;6207361;22;20094;-83
2022/01/24 07:39:06;;;;;;;62.60;28.15;;;4.10;99.90;;;;;;6232724;22;20020;-82
2022/01/24 07:41:34;;;;;;;61.50;27.98;;;4.10;99.90;;;;;;6182671;22;20062;-83
2022/01/24 07:44:00;;;;;;;59.65;29.35;;;4.20;99.90;;;;;;6254686;22;20050;-83
2022/01/24 07:46:28;;;;;;;58.95;29.42;;;4.80;99.90;;;;;;6226217;22;20450;-81
2022/01/24 07:48:54;;;;;;;60.08;31.15;;;4.60;99.90;;;;;;6238975;22;20028;-74
2022/01/24 07:51:20;;;;;;;61.78;30.17;;;4.00;99.90;;;;;;6210183;22;20414;-82
2022/01/24 07:53:45;;;;;;;52.42;27.00;;;4.00;99.90;;;;;;6237906;22;20443;-82
2022/01/24 07:56:12;;;;;;;58.85;27.80;;;4.00;99.90;;;;;;6161828;22;20019;-87
2022/01/24 07:58:38;;;;;;;57.80;27.15;;;4.50;99.90;;;;;;6213784;22;20055;-81
2022/01/24 08:01:04;;;;;;;59.13;27.85;;;4.00;99.90;;;;;;6213070;22;20028;-81
2022/01/24 08:03:30;;;;;;;55.85;28.50;;;4.00;99.90;;;;;;6241069;22;20020;-81
2022/01/24 08:05:56;;;;;;;55.42;27.60;;;4.00;99.90;;;;;;6216152;22;20038;-81
2022/01/24 08:08:21;;;;;;;58.92;28.42;;;4.20;99.90;;;;;;6244321;22;20056;-83
2022/01/24 08:10:47;;;;;;;62.30;29.00;;;4.10;99.90;;;;;;6194232;22;20016;-84
2022/01/24 08:13:13;;;;;;;58.53;29.02;;;4.00;99.90;;;;;;6224013;22;20537;-82
2022/01/24 08:15:40;;;;;;;63.47;28.35;;;4.30;99.90;;;;;;6210812;22;20115;-81
2022/01/24 08:18:06;;;;;;;59.72;29.67;;;4.10;99.90;;;;;;6212062;22;20074;-81
2022/01/24 08:20:33;;;;;;;54.13;27.27;;;4.10;99.90;;;;;;6186214;22;20130;-80
2022/01/24 08:22:59;;;;;;;60.50;27.35;;;4.10;99.90;;;;;;6211420;22;20047;-81
2022/01/24 08:25:26;;;;;;;60.83;29.60;;;4.10;99.90;;;;;;6210318;22;20035;-81
2022/01/24 08:27:52;;;;;;;55.92;26.02;;;4.10;99.90;;;;;;6210622;22;20050;-79
2022/01/24 08:30:21;;;;;;;60.28;27.55;;;4.10;99.90;;;;;;6237757;22;20024;-81
2022/01/24 08:32:47;;;;;;;55.90;27.27;;;4.10;99.90;;;;;;6212507;22;20053;-81
2022/01/24 08:35:15;;;;;;;61.03;28.85;;;4.10;99.90;;;;;;6213538;22;20026;-82
2022/01/24 08:37:41;;;;;;;58.22;27.38;;;4.10;99.90;;;;;;6213248;22;20334;-82
2022/01/24 08:40:11;;;;;;;52.90;26.90;;;4.10;99.90;;;;;;6212202;22;20026;-81
2022/01/24 08:42:55;;;;;;;60.22;27.55;;;4.20;99.90;;;;;;6211453;22;20019;-82
2022/01/24 08:48:05;;;;;;;52.05;25.23;;;4.20;99.90;;;;;;6194775;22;20553;-82
2022/01/24 08:50:31;;;;;;;54.47;26.50;;;4.20;99.90;;;;;;6187509;22;20011;-82
2022/01/24 08:52:59;;;;;;;50.72;25.48;;;4.20;99.90;;;;;;6212536;22;20034;-81
2022/01/24 08:55:29;;;;;;;55.33;27.15;;;4.20;99.90;;;;;;6238653;22;20092;-82
2022/01/24 08:57:56;;;;;;;56.78;28.08;;;4.20;99.90;;;;;;6217251;22;20050;-82
2022/01/24 09:00:22;;;;;;;57.95;27.60;;;4.30;99.90;;;;;;6220219;22;20541;-82
2022/01/24 09:02:49;;;;;;;58.70;26.48;;;4.30;99.90;;;;;;6195355;22;20055;-82
2022/01/24 09:05:17;;;;;;;56.15;27.45;;;4.30;99.90;;;;;;6183738;22;20020;-79
2022/01/24 09:07:43;;;;;;;49.70;26.33;;;4.30;99.90;;;;;;6207530;22;20046;-80
2022/01/24 09:10:09;;;;;;;56.80;26.40;;;4.30;99.90;;;;;;6187649;22;20020;-79
2022/01/24 09:12:35;;;;;;;53.40;26.35;;;4.30;99.90;;;;;;6213323;22;20023;-80
2022/01/24 09:15:00;;;;;;;57.72;27.90;;;4.40;99.90;;;;;;6211865;22;20030;-80
2022/01/24 09:17:26;;;;;;;58.22;29.17;;;4.40;99.90;;;;;;6212328;22;20508;-82
2022/01/24 09:19:52;;;;;;;54.08;28.45;;;4.40;99.90;;;;;;6190080;22;20049;-81
2022/01/24 09:22:18;;;;;;;55.45;28.13;;;4.40;99.90;;;;;;6216375;22;20022;-83
2022/01/24 09:24:43;;;;;;;55.88;28.98;;;4.40;99.90;;;;;;6191261;22;20027;-82
2022/01/24 09:27:09;;;;;;;55.60;28.52;;;4.50;99.90;;;;;;6191511;22;20085;-82
2022/01/24 09:29:35;;;;;;;52.03;27.95;;;4.50;99.90;;;;;;6241749;22;20100;-82
2022/01/24 09:32:00;;;;;;;51.35;28.08;;;4.50;99.90;;;;;;6241231;22;20019;-82
2022/01/24 09:34:26;;;;;;;51.55;29.00;;;4.50;99.90;;;;;;6164278;22;20043;-82
2022/01/24 09:36:52;;;;;;;55.20;28.98;;;4.50;99.90;;;;;;6212849;22;20481;-82
2022/01/24 09:39:18;;;;;;;53.60;29.70;;;4.50;99.90;;;;;;6162185;22;20139;-82
2022/01/24 09:41:45;;;;;;;50.30;27.25;;;4.60;99.90;;;;;;6211034;22;20038;-80
2022/01/24 09:44:11;;;;;;;53.97;28.52;;;4.90;99.90;;;;;;6161114;22;20069;-82
2022/01/24 09:46:38;;;;;;;49.55;27.70;;;4.60;99.90;;;;;;6236721;22;20028;-82
2022/01/24 09:49:05;;;;;;;52.88;29.80;;;4.60;99.90;;;;;;6236628;22;20467;-79
2022/01/24 09:51:32;;;;;;;56.78;30.92;;;5.10;99.90;;;;;;6210793;22;20051;-79
2022/01/24 09:54:00;;;;;;;52.17;29.27;;;4.60;99.90;;;;;;6235965;22;20016;-80
2022/01/24 09:56:27;;;;;;;55.47;30.45;;;4.70;99.90;;;;;;6162195;22;20026;-80
2022/01/24 09:58:53;;;;;;;55.60;30.85;;;4.70;99.90;;;;;;6211807;22;20262;-80
2022/01/24 10:01:19;;;;;;;54.67;30.85;;;4.60;99.90;;;;;;6185387;22;20051;-80
2022/01/24 10:04:10;;;;;;;51.90;30.10;;;4.70;99.90;;;;;;6236145;22;20051;-80
2022/01/24 10:06:58;;;;;;;51.75;29.45;;;4.70;99.90;;;;;;6211648;22;20019;-80
2022/01/24 10:09:28;;;;;;;54.00;29.40;;;4.70;99.90;;;;;;6236544;22;20526;-80
2022/01/24 10:12:08;;;;;;;51.38;29.15;;;4.70;99.90;;;;;;6211156;22;20319;-80
2022/01/24 10:17:24;;;;;;;45.85;26.52;;;4.70;99.90;;;;;;6236374;22;20512;-79
2022/01/24 10:19:50;;;;;;;50.70;29.05;;;4.70;99.90;;;;;;6211081;22;20103;-81
2022/01/24 10:22:21;;;;;;;50.72;29.55;;;4.70;99.90;;;;;;6236924;22;20085;-81
2022/01/24 10:24:54;;;;;;;50.60;28.45;;;4.70;99.90;;;;;;6211154;22;20051;-80
2022/01/24 10:27:28;;;;;;;52.78;28.48;;;4.80;99.90;;;;;;6187970;22;20368;-80
2022/01/24 10:29:57;;;;;;;52.80;30.02;;;4.70;99.90;;;;;;6236633;22;20095;-80
2022/01/24 10:32:30;;;;;;;45.58;26.25;;;4.70;99.90;;;;;;6211386;22;20049;-81
2022/01/24 10:34:56;;;;;;;;;;;4.70;99.90;;;;;;6211240;22;20526;-80
2022/01/24 10:37:23;;;;;;;48.13;27.75;;;4.70;99.90;;;;;;6209618;22;20433;-80
2022/01/24 10:39:57;;;;;;;42.83;26.17;;;4.80;99.90;;;;;;6210882;22;20051;-80
2022/01/24 10:42:36;;;;;;;45.45;25.95;;;4.80;99.90;;;;;;6235660;22;20020;-79
2022/01/24 10:45:13;;;;;;;48.35;27.25;;;4.70;99.90;;;;;;6212541;22;20020;-79
2022/01/24 10:47:45;;;;;;;48.28;27.15;;;4.80;99.90;;;;;;6212236;22;20077;-79
2022/01/24 10:50:32;;;;;;;45.40;26.45;;;4.80;99.90;;;;;;6211683;22;20107;-79
2022/01/24 10:53:09;;;;;;;45.72;26.52;;;4.70;99.90;;;;;;6210854;22;20644;-80
2022/01/24 10:55:35;;;;;;;43.95;26.67;;;5.00;99.90;;;;;;6211020;22;20047;-81
2022/01/24 10:58:06;;;;;;;42.13;26.15;;;4.80;99.90;;;;;;6160576;22;20020;-80
2022/01/24 11:00:33;;;;;;;48.30;25.90;;;5.10;99.90;;;;;;6236150;22;20027;-80
2022/01/24 11:03:01;;;;;;;44.80;25.88;;;4.90;99.90;;;;;;6235622;22;20094;-81
2022/01/24 11:05:34;;;;;;;48.60;26.92;;;4.80;99.90;;;;;;6234326;22;20016;-80
2022/01/24 11:08:02;;;;;;;48.33;28.45;;;4.80;99.90;;;;;;6235743;22;20023;-80
2022/01/24 11:10:49;;;;;;;44.13;26.83;;;4.80;99.90;;;;;;6241594;22;20099;-80
2022/01/24 11:13:20;;;;;;;47.35;26.65;;;4.80;99.90;;;;;;6217241;22;20023;-79
2022/01/24 11:15:56;;;;;;;44.33;25.52;;;4.80;99.90;;;;;;6250229;22;20088;-78
2022/01/24 11:18:23;;;;;;;51.85;26.30;;;4.80;99.90;;;;;;6207577;22;20015;-79
2022/01/24 11:20:49;;;;;;;46.38;25.88;;;4.70;99.90;;;;;;6220827;22;20024;-82
2022/01/24 11:23:21;;;;;;;41.05;26.20;;;4.80;99.90;;;;;;6220355;22;20459;-82
2022/01/24 11:25:49;;;;;;;43.43;26.00;;;4.70;99.90;;;;;;6168304;22;20023;-79
2022/01/24 11:28:15;;;;;;;43.33;26.05;;;4.70;99.90;;;;;;6216445;22;20350;-78
2022/01/24 11:31:19;;;;;;;51.65;30.05;;;4.70;99.90;;;;;;6265572;22;20012;-78
2022/01/24 11:33:55;;;;;;;55.72;30.80;;;4.70;99.90;;;;;;6167969;22;20012;-78
2022/01/24 11:36:39;;;;;;;54.65;30.52;;;4.70;99.90;;;;;;6190172;22;20538;-80
2022/01/24 11:39:06;;;;;;;53.20;30.45;;;4.70;99.90;;;;;;6268964;22;20023;-80
2022/01/24 11:41:35;;;;;;;56.08;31.40;;;4.90;99.90;;;;;;6190460;22;20019;-79
2022/01/24 11:44:16;;;;;;;52.58;30.45;;;4.70;99.90;;;;;;6243078;22;20058;-79
2022/01/24 11:46:52;;;;;;;54.42;30.73;;;4.70;99.90;;;;;;6238239;22;20058;-80
2022/01/24 11:49:33;;;;;;;47.88;26.38;;;4.70;99.90;;;;;;6247537;22;20399;-80
2022/01/24 11:52:11;;;;;;;46.83;27.55;;;4.70;99.90;;;;;;6247746;22;20070;-78
2022/01/24 11:57:23;;;;;;;47.60;26.02;;;5.00;99.90;;;;;;6247616;22;20098;-78
2022/01/24 12:00:11;;;;;;;48.15;28.25;;;4.60;99.90;;;;;;6221449;22;20015;-79
2022/01/24 12:02:42;;;;;;;45.65;26.95;;;4.60;99.90;;;;;;6207135;22;20022;-78
2022/01/24 12:05:15;;;;;;;47.97;27.95;;;4.70;99.90;;;;;;6244716;22;20202;-79
2022/01/24 12:07:55;;;;;;;50.17;29.58;;;4.60;99.90;;;;;;6220753;22;20473;-78
2022/01/24 12:10:34;;;;;;;51.38;30.17;;;4.60;99.90;;;;;;6244983;22;20031;-79
2022/01/24 12:13:19;;;;;;;53.20;29.00;;;4.60;99.90;;;;;;6219588;22;20011;-79
2022/01/24 12:15:48;;;;;;;43.10;25.95;;;5.40;99.90;;;;;;6244731;22;20031;-79
2022/01/24 12:18:26;;;;;;;44.35;25.33;;;4.60;99.90;;;;;;6221331;22;20020;-79
2022/01/24 12:20:57;;;;;;;44.88;26.20;;;4.60;99.90;;;;;;6220443;22;20074;-79
2022/01/24 12:23:27;;;;;;;51.88;30.27;;;4.60;99.90;;;;;;6195493;22;20016;-79
2022/01/24 12:25:58;;;;;;;49.97;29.15;;;4.70;99.90;;;;;;6220432;22;20046;-79
2022/01/24 12:28:26;;;;;;;51.80;28.05;;;4.60;99.90;;;;;;6220372;22;20071;-79
2022/01/24 12:31:08;;;;;;;49.30;28.33;;;4.60;99.90;;;;;;6245602;22;20046;-79
2022/01/24 12:33:42;;;;;;;49.05;28.65;;;4.60;99.90;;;;;;6245607;22;20023;-79
2022/01/24 12:36:14;;;;;;;48.15;27.85;;;4.60;99.90;;;;;;6245554;22;20016;-79
2022/01/24 12:38:43;;;;;;;50.25;29.05;;;4.60;99.90;;;;;;6219920;22;20020;-79
2022/01/24 12:41:18;;;;;;;46.47;27.45;;;4.60;99.90;;;;;;6245655;22;20027;-79
2022/01/24 12:46:29;;;;;;;47.28;27.00;;;4.60;99.90;;;;;;6245846;22;20077;-79
2022/01/24 12:49:04;;;;;;;46.30;26.45;;;4.70;99.90;;;;;;6221140;22;20080;-79
2022/01/24 12:51:33;;;;;;;47.28;26.58;;;4.60;99.90;;;;;;6246123;22;20375;-79
2022/01/24 12:54:02;;;;;;;39.72;24.83;;;4.70;99.90;;;;;;6246277;22;20447;-79
2022/01/24 12:56:32;;;;;;;41.97;24.17;;;4.70;99.90;;;;;;6220862;22;20023;-79
2022/01/24 12:58:58;;;;;;;41.20;26.20;;;4.50;99.90;;;;;;6220447;22;20028;-79
2022/01/24 13:01:32;;;;;;;45.97;27.60;;;4.50;99.90;;;;;;6219737;22;20066;-79
2022/01/24 13:04:12;;;;;;;43.08;25.75;;;4.50;99.90;;;;;;6220579;22;20478;-79
2022/01/24 13:06:46;;;;;;;42.13;25.90;;;4.50;99.90;;;;;;6220086;22;20019;-79
2022/01/24 13:09:25;;;;;;;44.80;27.10;;;4.50;99.90;;;;;;6195968;22;20019;-79
2022/01/24 13:12:00;;;;;;;42.95;23.17;;;4.50;99.90;;;;;;6195723;22;20015;-79
2022/01/24 13:14:43;;;;;;;42.30;24.15;;;4.50;99.90;;;;;;6220031;22;20632;-79
2022/01/24 13:22:54;;;;;;;42.65;24.20;;;4.50;99.90;;;;;;6224325;22;20020;-80
2022/01/24 13:25:29;;;;;;;47.13;25.55;;;4.90;99.90;;;;;;6219561;22;20019;-80
2022/01/24 13:27:58;;;;;;;47.55;25.52;;;4.50;99.90;;;;;;6245515;22;20090;-80
2022/01/24 13:30:32;;;;;;;44.97;26.02;;;4.50;99.90;;;;;;6244455;22;20011;-80
2022/01/24 13:32:59;;;;;;;46.03;26.08;;;4.50;99.90;;;;;;6244625;22;20077;-80
2022/01/24 13:35:32;;;;;;;48.03;26.52;;;4.50;99.90;;;;;;6220213;22;20438;-82
2022/01/24 13:38:03;;;;;;;51.05;26.45;;;4.50;99.90;;;;;;6246054;22;20038;-84
2022/01/24 13:40:41;;;;;;;46.53;26.40;;;4.80;99.90;;;;;;6220781;22;20019;-82
2022/01/24 13:43:09;;;;;;;39.15;23.25;;;4.50;99.90;;;;;;6197414;22;20015;-82
2022/01/24 13:45:43;;;;;;;39.58;24.20;;;5.00;99.90;;;;;;6219790;22;20023;-82
2022/01/24 13:48:21;;;;;;;41.40;23.38;;;4.50;99.90;;;;;;6220231;22;20101;-82
2022/01/24 13:50:52;;;;;;;42.78;24.52;;;4.50;99.90;;;;;;6245205;22;20077;-82
2022/01/24 13:53:38;;;;;;;40.63;24.88;;;4.40;99.90;;;;;;6244401;22;20008;-82
2022/01/24 13:56:22;;;;;;;46.78;25.40;;;4.40;99.90;;;;;;6245604;22;20019;-82
2022/01/24 13:59:08;;;;;;;39.45;23.25;;;4.40;99.90;;;;;;6245824;22;20023;-82
2022/01/24 14:01:35;;;;;;;37.72;22.45;;;4.40;99.90;;;;;;6220707;22;20023;-82
2022/01/24 14:04:04;;;;;;;42.97;24.48;;;4.30;99.90;;;;;;6244569;22;20026;-82
2022/01/24 14:06:33;;;;;;;40.42;25.15;;;4.30;99.90;;;;;;6245150;22;20026;-82
2022/01/24 14:09:09;;;;;;;40.50;24.92;;;4.30;99.90;;;;;;6244677;22;20023;-82
2022/01/24 14:11:49;;;;;;;41.47;25.30;;;4.90;99.90;;;;;;6220754;22;20054;-82
2022/01/24 14:14:20;;;;;;;47.00;26.98;;;4.30;99.90;;;;;;6219177;22;20016;-82
2022/01/24 14:17:08;;;;;;;47.03;28.77;;;4.20;99.90;;;;;;6241217;22;20309;-81
2022/01/24 14:19:36;;;;;;;40.80;25.23;;;4.30;99.90;;;;;;6232865;22;20094;-82
2022/01/24 14:22:08;;;;;;;40.75;25.55;;;4.20;99.90;;;;;;6208465;22;20016;-83
2022/01/24 14:24:54;;;;;;;40.47;25.13;;;4.20;99.90;;;;;;6210283;22;20022;-83
2022/01/24 14:27:42;;;;;;;40.72;25.08;;;4.10;99.90;;;;;;6210823;22;20062;-83
2022/01/24 14:30:20;;;;;;;35.25;23.27;;;4.10;99.90;;;;;;6236452;22;20155;-82
2022/01/24 14:33:03;;;;;;;31.52;20.38;;;4.10;99.90;;;;;;6235966;22;20020;-83
2022/01/24 14:35:34;;;;;;;33.25;21.70;;;4.10;99.90;;;;;;6210906;22;20023;-83
2022/01/24 14:38:00;;;;;;;29.30;18.65;;;4.10;99.90;;;;;;6182162;22;20355;-83
2022/01/24 14:40:34;;;;;;;26.13;18.33;;;4.10;99.90;;;;;;6207550;22;20024;-83
2022/01/24 14:44:53;;;;;;;26.13;18.20;;;4.00;99.90;;;;;;6206397;22;20873;-82
2022/01/24 14:45:46;;;;;;;32.35;20.88;;;4.00;99.90;;;;;;6210077;22;20019;-82
2022/01/24 14:48:12;;;;;;;32.92;21.80;;;4.00;99.90;;;;;;6198371;23;20035;-83